Time;durP1;ratioP1;P1;durP2;ratioP2;P2;SDS_P1;SDS_P2;PMS_P1;PMS_P2;Temp;Humidity;BMP_temperature;BMP_pressure;BME280_temperature;BME280_humidity;BME280_pressure;Samples;Min_cycle;Max_cycle;Signal;HPM_P1;HPM_P2
2021/10/31 00:01:32;;;;;;;12.68;8.05;;;;;;;;;;5091632;22;20029;-87
2021/10/31 00:03:58;;;;;;;14.82;8.13;;;;;;;;;;5077555;28;20480;-87
2021/10/31 00:06:25;;;;;;;14.15;8.85;;;;;;;;;;5078077;28;20093;-87
2021/10/31 00:08:51;;;;;;;12.43;7.72;;;;;;;;;;5087221;28;20036;-87
2021/10/31 00:11:19;;;;;;;12.57;8.23;;;;;;;;;;5083996;28;20033;-88
2021/10/31 00:13:46;;;;;;;14.05;8.52;;;;;;;;;;5079584;28;20052;-88
2021/10/31 00:16:14;;;;;;;14.23;7.68;;;;;;;;;;5077026;28;20025;-87
2021/10/31 00:18:41;;;;;;;12.60;8.10;;;;;;;;;;5077229;28;20142;-88
2021/10/31 00:21:07;;;;;;;14.15;8.13;;;;;;;;;;5078497;28;20025;-87
2021/10/31 00:23:34;;;;;;;11.38;8.02;;;;;;;;;;5077801;28;20041;-87
2021/10/31 00:26:00;;;;;;;11.80;7.43;;;;;;;;;;5077142;28;20092;-87
2021/10/31 00:28:27;;;;;;;11.30;7.75;;;;;;;;;;5077604;28;20025;-87
2021/10/31 00:30:53;;;;;;;11.38;7.70;;;;;;;;;;5077817;28;20037;-87
2021/10/31 00:33:21;;;;;;;12.38;8.10;;;;;;;;;;5076652;28;20025;-86
2021/10/31 00:35:48;;;;;;;13.05;7.88;;;;;;;;;;5078445;28;20036;-86
2021/10/31 00:38:14;;;;;;;11.60;7.10;;;;;;;;;;5086220;28;20059;-87
2021/10/31 00:40:43;;;;;;;12.52;8.30;;;;;;;;;;5076811;28;20032;-87
2021/10/31 00:43:10;;;;;;;13.70;9.10;;;;;;;;;;5082120;28;20051;-87
2021/10/31 00:45:36;;;;;;;14.10;9.45;;;;;;;;;;5078330;28;20029;-87
2021/10/31 00:48:03;;;;;;;11.93;7.90;;;;;;;;;;5076908;28;20039;-87
2021/10/31 00:50:31;;;;;;;14.30;8.38;;;;;;;;;;5076614;28;20029;-87
2021/10/31 00:52:57;;;;;;;10.27;6.88;;;;;;;;;;5075961;28;20036;-88
2021/10/31 00:55:24;;;;;;;10.38;6.28;;;;;;;;;;5077822;28;20033;-87
2021/10/31 00:57:50;;;;;;;10.90;6.72;;;;;;;;;;5076821;28;20234;-87
2021/10/31 01:00:17;;;;;;;12.82;7.43;;;;;;;;;;5077477;28;20033;-87
2021/10/31 01:02:44;;;;;;;10.20;6.53;;;;;;;;;;5081704;28;20029;-87
2021/10/31 01:05:19;;;;;;;12.20;6.72;;;;;;;;;;5076159;28;20026;-87
2021/10/31 01:07:59;;;;;;;10.50;7.00;;;;;;;;;;5073563;28;20081;-88
2021/10/31 01:10:30;;;;;;;11.40;7.07;;;;;;;;;;5076462;28;20037;-87
2021/10/31 01:13:09;;;;;;;10.60;6.90;;;;;;;;;;5077391;28;20033;-87
2021/10/31 01:15:40;;;;;;;12.27;8.07;;;;;;;;;;5076512;28;20067;-87
2021/10/31 01:18:31;;;;;;;10.82;7.13;;;;;;;;;;5077014;28;20059;-87
2021/10/31 01:21:10;;;;;;;12.65;8.18;;;;;;;;;;5064575;28;20035;-88
2021/10/31 01:23:53;;;;;;;15.93;9.73;;;;;;;;;;5077753;28;20080;-87
2021/10/31 01:26:28;;;;;;;13.95;10.20;;;;;;;;;;5079622;28;20049;-87
2021/10/31 01:29:22;;;;;;;15.02;9.52;;;;;;;;;;5089966;28;20047;-87
2021/10/31 01:31:59;;;;;;;14.70;10.60;;;;;;;;;;5064988;28;20029;-87
2021/10/31 01:34:31;;;;;;;11.75;8.70;;;;;;;;;;5085755;28;20029;-88
2021/10/31 01:37:03;;;;;;;13.30;8.40;;;;;;;;;;5081310;28;20029;-87
2021/10/31 01:39:38;;;;;;;10.23;6.82;;;;;;;;;;5079644;28;20040;-88
2021/10/31 01:42:13;;;;;;;11.10;7.55;;;;;;;;;;5079814;28;20040;-88
2021/10/31 01:44:48;;;;;;;12.93;8.57;;;;;;;;;;5078916;28;20032;-87
2021/10/31 01:47:25;;;;;;;11.25;7.35;;;;;;;;;;5079883;28;20029;-87
2021/10/31 01:49:55;;;;;;;12.05;7.55;;;;;;;;;;5083071;28;20025;-87
2021/10/31 01:52:22;;;;;;;12.13;8.43;;;;;;;;;;5079134;28;20024;-87
2021/10/31 01:54:54;;;;;;;14.35;9.18;;;;;;;;;;5079725;28;20096;-87
2021/10/31 01:57:22;;;;;;;10.25;7.43;;;;;;;;;;5084517;28;20037;-87
2021/10/31 01:59:53;;;;;;;12.40;7.95;;;;;;;;;;5089806;28;20104;-86
2021/10/31 02:02:20;;;;;;;11.00;7.93;;;;;;;;;;5080263;28;20036;-87
2021/10/31 02:04:47;;;;;;;11.88;7.95;;;;;;;;;;5081460;28;20028;-87
2021/10/31 02:07:14;;;;;;;10.23;7.50;;;;;;;;;;5079807;28;20029;-87
2021/10/31 02:09:41;;;;;;;13.90;9.73;;;;;;;;;;5086726;28;20057;-87
2021/10/31 02:12:15;;;;;;;12.77;8.48;;;;;;;;;;5083103;28;20029;-87
2021/10/31 02:14:43;;;;;;;17.58;9.27;;;;;;;;;;5088212;28;20089;-87
2021/10/31 02:17:09;;;;;;;13.57;9.48;;;;;;;;;;5078295;28;20039;-87
2021/10/31 02:19:39;;;;;;;11.05;7.85;;;;;;;;;;5078693;28;20037;-87
2021/10/31 02:22:08;;;;;;;11.27;6.63;;;;;;;;;;5068743;28;20029;-87
2021/10/31 02:24:37;;;;;;;10.88;6.68;;;;;;;;;;5078292;28;20047;-87
2021/10/31 02:27:12;;;;;;;10.63;6.50;;;;;;;;;;5083189;28;20100;-87
2021/10/31 02:29:45;;;;;;;8.73;5.53;;;;;;;;;;5079066;28;20082;-87
2021/10/31 02:32:12;;;;;;;11.65;6.18;;;;;;;;;;5076968;28;20029;-87
2021/10/31 02:34:38;;;;;;;7.93;5.50;;;;;;;;;;5079236;28;20039;-87
2021/10/31 02:37:05;;;;;;;7.75;5.45;;;;;;;;;;5079031;28;20035;-87
2021/10/31 02:39:31;;;;;;;9.60;5.45;;;;;;;;;;5078902;28;20033;-87
2021/10/31 02:41:59;;;;;;;9.15;5.60;;;;;;;;;;5077858;28;20055;-87
2021/10/31 02:44:25;;;;;;;7.65;5.53;;;;;;;;;;5079189;28;20025;-87
2021/10/31 02:46:52;;;;;;;9.38;5.20;;;;;;;;;;5078072;28;20089;-86
2021/10/31 02:49:19;;;;;;;7.90;4.90;;;;;;;;;;5078587;28;20041;-87
2021/10/31 02:51:50;;;;;;;8.55;5.00;;;;;;;;;;5079408;28;20025;-87
2021/10/31 02:54:22;;;;;;;7.97;5.13;;;;;;;;;;5084257;28;20032;-87
2021/10/31 02:56:58;;;;;;;6.68;4.90;;;;;;;;;;5078159;28;20033;-87
2021/10/31 02:59:33;;;;;;;7.97;4.43;;;;;;;;;;5076478;28;20031;-87
2021/10/31 03:02:00;;;;;;;7.40;4.80;;;;;;;;;;5077313;28;20160;-87
2021/10/31 03:04:27;;;;;;;7.55;4.85;;;;;;;;;;5078044;28;20275;-87
2021/10/31 03:06:55;;;;;;;8.30;5.38;;;;;;;;;;5076389;28;20025;-86
2021/10/31 03:09:21;;;;;;;7.20;4.53;;;;;;;;;;5069765;28;20272;-87
2021/10/31 03:11:48;;;;;;;9.73;5.07;;;;;;;;;;5077625;28;20039;-87
2021/10/31 03:14:14;;;;;;;8.85;5.55;;;;;;;;;;5077408;28;20251;-87
2021/10/31 03:16:42;;;;;;;8.10;5.50;;;;;;;;;;5079449;28;20050;-86
2021/10/31 03:19:08;;;;;;;7.65;5.45;;;;;;;;;;5086225;28;20044;-87
2021/10/31 03:21:35;;;;;;;8.80;4.72;;;;;;;;;;5077639;28;20035;-86
2021/10/31 03:24:01;;;;;;;8.43;5.07;;;;;;;;;;5079996;28;20046;-86
2021/10/31 03:26:28;;;;;;;8.32;5.28;;;;;;;;;;5077868;28;20029;-86
2021/10/31 03:28:54;;;;;;;8.15;5.10;;;;;;;;;;5078080;28;20025;-87
2021/10/31 03:31:21;;;;;;;7.63;4.90;;;;;;;;;;5077661;28;20033;-87
2021/10/31 03:33:48;;;;;;;8.10;5.45;;;;;;;;;;5077636;28;20053;-87
2021/10/31 03:36:15;;;;;;;9.25;6.03;;;;;;;;;;5072879;28;20041;-87
2021/10/31 03:38:41;;;;;;;7.68;4.72;;;;;;;;;;5081835;28;20025;-87
2021/10/31 03:41:08;;;;;;;8.32;5.50;;;;;;;;;;5076782;28;20039;-86
2021/10/31 03:43:34;;;;;;;9.52;5.90;;;;;;;;;;5078051;28;20029;-86
2021/10/31 03:46:01;;;;;;;9.07;5.53;;;;;;;;;;5078479;28;20084;-86
2021/10/31 03:48:27;;;;;;;9.70;5.85;;;;;;;;;;5077567;28;20100;-86
2021/10/31 03:50:55;;;;;;;8.00;5.82;;;;;;;;;;5079103;28;20043;-87
2021/10/31 03:53:21;;;;;;;9.10;5.82;;;;;;;;;;5081006;28;20029;-87
2021/10/31 03:55:48;;;;;;;9.93;6.20;;;;;;;;;;5077868;28;20035;-88
2021/10/31 03:58:14;;;;;;;6.78;4.90;;;;;;;;;;5083068;28;20028;-88
2021/10/31 04:00:43;;;;;;;8.55;5.50;;;;;;;;;;5084827;28;20033;-88
2021/10/31 04:03:09;;;;;;;8.90;5.47;;;;;;;;;;5076625;28;20021;-88
2021/10/31 04:05:35;;;;;;;8.77;5.50;;;;;;;;;;5077561;28;20039;-88
2021/10/31 04:08:03;;;;;;;9.07;5.70;;;;;;;;;;5076633;28;20041;-87
2021/10/31 04:10:30;;;;;;;8.68;5.50;;;;;;;;;;5076734;28;20035;-86
2021/10/31 04:12:57;;;;;;;7.38;5.18;;;;;;;;;;5079795;28;20043;-86
2021/10/31 04:15:23;;;;;;;8.20;5.32;;;;;;;;;;5078308;28;20028;-85
2021/10/31 04:17:50;;;;;;;8.68;5.25;;;;;;;;;;5079174;28;20025;-86
2021/10/31 04:20:17;;;;;;;9.02;5.63;;;;;;;;;;5077068;28;20051;-86
2021/10/31 04:22:45;;;;;;;8.13;5.75;;;;;;;;;;5080351;28;20029;-86
2021/10/31 04:25:13;;;;;;;7.20;4.68;;;;;;;;;;5078441;28;20088;-86
2021/10/31 04:27:39;;;;;;;8.05;4.72;;;;;;;;;;5076716;28;20029;-86
2021/10/31 04:30:08;;;;;;;7.95;4.88;;;;;;;;;;5079150;28;20028;-86
2021/10/31 04:32:34;;;;;;;8.05;4.72;;;;;;;;;;5076935;28;20048;-86
2021/10/31 04:35:01;;;;;;;7.22;4.63;;;;;;;;;;5079815;28;20047;-86
2021/10/31 04:37:28;;;;;;;9.45;5.53;;;;;;;;;;5076610;28;20024;-86
2021/10/31 04:39:57;;;;;;;9.80;5.18;;;;;;;;;;5082159;28;20063;-86
2021/10/31 04:42:29;;;;;;;8.50;5.18;;;;;;;;;;5085112;28;20031;-86
2021/10/31 04:44:56;;;;;;;8.48;5.07;;;;;;;;;;5078179;28;20056;-86
2021/10/31 04:47:22;;;;;;;7.85;5.00;;;;;;;;;;5077292;28;20060;-86
2021/10/31 04:49:49;;;;;;;8.52;4.97;;;;;;;;;;5076885;28;20089;-86
2021/10/31 04:52:16;;;;;;;6.82;4.65;;;;;;;;;;5078207;28;20027;-86
2021/10/31 04:54:43;;;;;;;7.63;5.00;;;;;;;;;;5081229;28;20033;-87
2021/10/31 04:57:09;;;;;;;8.90;5.20;;;;;;;;;;5088873;28;20041;-86
2021/10/31 04:59:37;;;;;;;7.43;5.13;;;;;;;;;;5082491;28;20065;-86
2021/10/31 05:02:04;;;;;;;8.38;4.60;;;;;;;;;;5088733;28;20052;-86
2021/10/31 05:04:30;;;;;;;7.60;5.03;;;;;;;;;;5080989;28;20029;-86
2021/10/31 05:06:56;;;;;;;8.60;5.40;;;;;;;;;;5080116;28;20152;-86
2021/10/31 05:09:23;;;;;;;8.77;5.47;;;;;;;;;;5084176;28;20043;-86
2021/10/31 05:11:50;;;;;;;10.20;5.25;;;;;;;;;;5079577;28;20088;-87
2021/10/31 05:14:16;;;;;;;8.30;4.85;;;;;;;;;;5084332;28;20100;-86
2021/10/31 05:16:45;;;;;;;7.75;4.65;;;;;;;;;;5085602;28;20043;-86
2021/10/31 05:19:13;;;;;;;8.15;5.57;;;;;;;;;;5081055;28;20025;-86
2021/10/31 05:21:39;;;;;;;7.13;4.88;;;;;;;;;;5080753;28;20035;-86
2021/10/31 05:24:06;;;;;;;9.15;5.25;;;;;;;;;;5080561;28;20025;-86
2021/10/31 05:26:32;;;;;;;7.72;5.20;;;;;;;;;;5084996;28;20028;-87
2021/10/31 05:28:59;;;;;;;8.15;4.93;;;;;;;;;;5084989;28;20029;-86
2021/10/31 05:31:25;;;;;;;10.07;6.07;;;;;;;;;;5079545;28;20029;-86
2021/10/31 05:33:53;;;;;;;12.35;5.63;;;;;;;;;;5082413;28;20031;-87
2021/10/31 05:36:20;;;;;;;11.65;6.30;;;;;;;;;;5083862;28;20028;-87
2021/10/31 05:38:47;;;;;;;9.07;4.93;;;;;;;;;;5082978;28;20060;-87
2021/10/31 05:41:14;;;;;;;11.15;5.32;;;;;;;;;;5079628;28;20040;-86
2021/10/31 05:43:40;;;;;;;11.73;5.45;;;;;;;;;;5080069;28;20039;-86
2021/10/31 05:46:07;;;;;;;10.70;6.60;;;;;;;;;;5081779;28;20029;-86
2021/10/31 05:48:33;;;;;;;8.02;5.10;;;;;;;;;;5080162;28;20033;-86
2021/10/31 05:51:01;;;;;;;8.70;5.57;;;;;;;;;;5084624;28;20088;-87
2021/10/31 05:53:29;;;;;;;14.02;5.38;;;;;;;;;;5087532;28;20025;-86
2021/10/31 05:55:55;;;;;;;9.88;5.28;;;;;;;;;;5082447;28;20036;-86
2021/10/31 05:58:22;;;;;;;9.52;5.90;;;;;;;;;;5084455;28;20028;-86
2021/10/31 06:00:48;;;;;;;6.60;4.93;;;;;;;;;;5079356;28;20043;-86
2021/10/31 06:03:15;;;;;;;7.88;4.50;;;;;;;;;;5080520;28;20039;-86
2021/10/31 06:05:44;;;;;;;16.85;5.63;;;;;;;;;;5080507;28;20025;-86
2021/10/31 06:08:15;;;;;;;6.60;4.30;;;;;;;;;;5078741;28;20051;-86
2021/10/31 06:10:41;;;;;;;9.13;5.07;;;;;;;;;;5079193;28;20060;-87
2021/10/31 06:13:08;;;;;;;11.10;5.00;;;;;;;;;;5083577;28;20089;-87
2021/10/31 06:15:34;;;;;;;9.75;5.20;;;;;;;;;;5084567;28;20031;-86
2021/10/31 06:18:01;;;;;;;9.45;5.20;;;;;;;;;;5086884;28;20033;-86
2021/10/31 06:20:27;;;;;;;12.80;5.70;;;;;;;;;;5082008;28;20032;-87
2021/10/31 06:22:54;;;;;;;8.80;5.57;;;;;;;;;;5090080;28;20105;-86
2021/10/31 06:25:22;;;;;;;14.57;5.70;;;;;;;;;;5079921;28;20025;-86
2021/10/31 06:27:48;;;;;;;6.80;4.47;;;;;;;;;;5082448;28;20036;-86
2021/10/31 06:30:14;;;;;;;9.48;4.93;;;;;;;;;;5079088;28;20032;-86
2021/10/31 06:32:42;;;;;;;17.40;6.90;;;;;;;;;;5078968;28;20035;-87
2021/10/31 06:35:09;;;;;;;11.68;5.55;;;;;;;;;;5079982;28;20025;-87
2021/10/31 06:37:35;;;;;;;7.28;4.57;;;;;;;;;;5080327;28;20025;-86
2021/10/31 06:40:02;;;;;;;8.82;5.20;;;;;;;;;;5078926;28;20039;-86
2021/10/31 06:42:29;;;;;;;8.98;5.30;;;;;;;;;;5078714;28;20035;-86
2021/10/31 06:44:56;;;;;;;9.98;5.63;;;;;;;;;;5083092;28;20105;-86
2021/10/31 06:47:23;;;;;;;13.38;5.80;;;;;;;;;;5079008;28;20345;-87
2021/10/31 06:49:50;;;;;;;12.10;7.95;;;;;;;;;;5083864;28;20101;-87
2021/10/31 06:52:17;;;;;;;13.70;8.40;;;;;;;;;;5084645;28;20039;-87
2021/10/31 06:54:43;;;;;;;9.02;5.93;;;;;;;;;;5079533;28;20037;-87
2021/10/31 06:57:10;;;;;;;9.00;5.30;;;;;;;;;;5077819;28;20029;-87
2021/10/31 06:59:38;;;;;;;7.93;5.10;;;;;;;;;;5078468;28;20029;-87
2021/10/31 07:02:04;;;;;;;7.53;5.05;;;;;;;;;;5081778;28;20033;-88
2021/10/31 07:04:31;;;;;;;16.92;5.18;;;;;;;;;;5081324;28;20029;-87
2021/10/31 07:06:57;;;;;;;8.77;5.82;;;;;;;;;;5078362;28;20052;-87
2021/10/31 07:09:24;;;;;;;7.07;4.63;;;;;;;;;;5077969;28;20025;-87
2021/10/31 07:11:50;;;;;;;16.02;6.97;;;;;;;;;;5079186;28;20029;-87
2021/10/31 07:14:17;;;;;;;8.38;5.60;;;;;;;;;;5081320;28;20031;-86
2021/10/31 07:16:45;;;;;;;7.20;4.88;;;;;;;;;;5079515;28;20033;-86
2021/10/31 07:19:11;;;;;;;9.88;4.85;;;;;;;;;;5079433;28;20043;-87
2021/10/31 07:21:38;;;;;;;9.23;5.40;;;;;;;;;;5082804;28;20033;-87
2021/10/31 07:24:05;;;;;;;6.57;4.43;;;;;;;;;;5088920;28;20050;-87
2021/10/31 07:26:32;;;;;;;8.35;4.70;;;;;;;;;;5080225;28;20085;-87
2021/10/31 07:28:59;;;;;;;10.43;4.55;;;;;;;;;;5081158;28;20039;-87
2021/10/31 07:31:29;;;;;;;7.13;4.93;;;;;;;;;;5078029;28;20088;-88
2021/10/31 07:33:57;;;;;;;11.45;5.28;;;;;;;;;;5078062;28;20033;-87
2021/10/31 07:36:24;;;;;;;17.23;5.80;;;;;;;;;;5089810;28;20043;-87
2021/10/31 07:38:51;;;;;;;6.32;4.55;;;;;;;;;;5078942;28;20059;-87
2021/10/31 07:41:17;;;;;;;11.68;4.60;;;;;;;;;;5077267;28;20055;-87
2021/10/31 07:43:44;;;;;;;9.75;4.88;;;;;;;;;;5078160;28;20041;-87
2021/10/31 07:46:11;;;;;;;11.38;5.68;;;;;;;;;;5079929;28;20025;-87
2021/10/31 07:48:38;;;;;;;13.85;7.13;;;;;;;;;;5078344;28;20033;-87
2021/10/31 07:51:09;;;;;;;7.65;5.32;;;;;;;;;;5082741;28;20029;-87
2021/10/31 07:53:41;;;;;;;6.18;4.20;;;;;;;;;;5079927;28;20028;-88
2021/10/31 07:56:09;;;;;;;9.65;4.28;;;;;;;;;;5080176;28;20021;-88
2021/10/31 07:58:39;;;;;;;15.73;5.10;;;;;;;;;;5080464;28;20036;-88
2021/10/31 08:01:05;;;;;;;5.60;3.60;;;;;;;;;;5078357;28;20047;-87
2021/10/31 08:03:32;;;;;;;7.40;5.00;;;;;;;;;;5079567;28;20092;-87
2021/10/31 08:05:58;;;;;;;5.57;3.45;;;;;;;;;;5079632;28;20059;-87
2021/10/31 08:08:27;;;;;;;7.40;4.10;;;;;;;;;;5084017;28;20025;-88
2021/10/31 08:10:54;;;;;;;6.07;3.88;;;;;;;;;;5077180;28;20063;-88
2021/10/31 08:13:23;;;;;;;6.38;3.70;;;;;;;;;;5081429;28;20025;-89
2021/10/31 08:15:50;;;;;;;5.45;3.83;;;;;;;;;;5077126;28;20025;-88
2021/10/31 08:18:17;;;;;;;5.60;3.85;;;;;;;;;;5077177;28;20047;-88
2021/10/31 08:20:46;;;;;;;5.45;3.53;;;;;;;;;;5083339;28;20048;-88
2021/10/31 08:23:14;;;;;;;4.78;2.97;;;;;;;;;;5077816;28;20025;-88
2021/10/31 08:25:43;;;;;;;7.63;3.72;;;;;;;;;;5074871;28;20055;-88
2021/10/31 08:28:11;;;;;;;6.32;3.83;;;;;;;;;;5081227;28;20079;-89
2021/10/31 08:30:41;;;;;;;7.38;4.38;;;;;;;;;;5082801;28;20056;-90
2021/10/31 08:33:18;;;;;;;6.13;3.92;;;;;;;;;;5081877;28;20033;-89
2021/10/31 08:35:44;;;;;;;13.18;5.38;;;;;;;;;;5079174;28;20021;-89
2021/10/31 08:38:11;;;;;;;6.22;4.45;;;;;;;;;;5079924;28;20025;-89
2021/10/31 08:40:37;;;;;;;8.00;4.03;;;;;;;;;;5083234;28;20041;-89
2021/10/31 08:43:06;;;;;;;7.18;3.67;;;;;;;;;;5080616;28;20048;-87
2021/10/31 08:45:34;;;;;;;7.30;4.20;;;;;;;;;;5078003;28;20037;-89
2021/10/31 08:48:00;;;;;;;7.22;4.28;;;;;;;;;;5088747;28;20048;-87
2021/10/31 08:50:27;;;;;;;8.18;4.88;;;;;;;;;;5083668;28;20025;-87
2021/10/31 08:52:54;;;;;;;7.28;4.38;;;;;;;;;;5078853;28;20037;-88
2021/10/31 08:55:21;;;;;;;6.65;4.55;;;;;;;;;;5081432;28;20096;-90
2021/10/31 08:57:48;;;;;;;8.88;5.63;;;;;;;;;;5078412;28;20092;-88
2021/10/31 09:00:16;;;;;;;6.50;4.60;;;;;;;;;;5081427;28;20108;-88
2021/10/31 09:02:42;;;;;;;11.20;5.13;;;;;;;;;;5076335;28;20088;-88
2021/10/31 09:05:10;;;;;;;7.18;4.15;;;;;;;;;;5083051;28;20084;-88
2021/10/31 09:07:36;;;;;;;6.30;3.90;;;;;;;;;;5078782;28;20031;-88
2021/10/31 09:10:04;;;;;;;8.60;3.58;;;;;;;;;;5079033;28;20025;-88
2021/10/31 09:12:30;;;;;;;6.18;3.63;;;;;;;;;;5077164;28;20056;-88
2021/10/31 09:14:57;;;;;;;4.78;2.67;;;;;;;;;;5082542;28;20040;-87
2021/10/31 09:17:26;;;;;;;3.88;2.40;;;;;;;;;;5085934;28;20059;-89
2021/10/31 09:19:52;;;;;;;4.40;2.65;;;;;;;;;;5083426;28;20033;-88
2021/10/31 09:22:27;;;;;;;4.82;2.50;;;;;;;;;;5084910;28;20033;-88
2021/10/31 09:24:54;;;;;;;5.22;3.28;;;;;;;;;;5101635;22;20097;-72
2021/10/31 09:27:20;;;;;;;10.95;5.47;;;;;;;;;;5114605;28;20401;-73
2021/10/31 09:29:47;;;;;;;4.13;2.30;;;;;;;;;;5103505;28;20507;-72
2021/10/31 09:32:14;;;;;;;6.18;2.42;;;;;;;;;;5098501;28;20052;-72
2021/10/31 09:34:43;;;;;;;5.18;2.35;;;;;;;;;;5102399;28;20132;-71
2021/10/31 09:37:10;;;;;;;3.53;1.98;;;;;;;;;;5096945;28;20082;-72
2021/10/31 09:39:36;;;;;;;4.03;2.25;;;;;;;;;;5095024;28;20044;-72
2021/10/31 09:42:03;;;;;;;5.55;2.33;;;;;;;;;;5092564;28;20101;-74
2021/10/31 09:44:33;;;;;;;4.22;1.67;;;;;;;;;;5092163;28;20075;-72
2021/10/31 09:47:00;;;;;;;8.07;2.20;;;;;;;;;;5093626;28;20089;-74
2021/10/31 09:49:26;;;;;;;8.05;3.08;;;;;;;;;;5093360;28;20587;-73
2021/10/31 09:51:54;;;;;;;4.43;2.10;;;;;;;;;;5090213;28;20036;-72
2021/10/31 09:54:21;;;;;;;12.15;3.30;;;;;;;;;;5094879;28;20441;-72
2021/10/31 09:56:47;;;;;;;4.60;2.65;;;;;;;;;;5094692;28;20058;-72
2021/10/31 09:59:16;;;;;;;5.78;2.50;;;;;;;;;;5092351;28;20512;-72
2021/10/31 10:04:33;;;;;;;3.72;2.30;;;;;;;;;;5087016;28;20137;-73
2021/10/31 10:07:03;;;;;;;3.53;1.92;;;;;;;;;;5093610;28;20052;-72
2021/10/31 10:09:30;;;;;;;5.75;3.00;;;;;;;;;;5093250;28;20513;-72
2021/10/31 10:11:57;;;;;;;8.80;2.30;;;;;;;;;;5091966;28;20486;-72
2021/10/31 10:14:27;;;;;;;3.83;2.83;;;;;;;;;;5092046;28;20089;-74
2021/10/31 10:16:57;;;;;;;5.40;2.60;;;;;;;;;;5091469;28;20123;-72
2021/10/31 10:19:25;;;;;;;4.20;2.70;;;;;;;;;;5090823;28;20062;-74
2021/10/31 10:21:57;;;;;;;4.78;2.30;;;;;;;;;;5092630;28;20102;-71
2021/10/31 10:24:25;;;;;;;4.10;2.53;;;;;;;;;;5089254;28;20052;-71
2021/10/31 10:26:56;;;;;;;5.15;2.72;;;;;;;;;;5090555;28;20735;-71
2021/10/31 10:29:24;;;;;;;5.75;2.70;;;;;;;;;;5094114;28;20055;-71
2021/10/31 10:31:53;;;;;;;5.22;2.75;;;;;;;;;;5093665;28;20036;-74
2021/10/31 10:34:37;;;;;;;4.97;2.20;;;;;;;;;;5091149;28;20048;-73
2021/10/31 10:37:09;;;;;;;5.68;3.05;;;;;;;;;;5100450;28;20043;-74
2021/10/31 10:39:38;;;;;;;3.05;2.08;;;;;;;;;;5098587;27;20421;-72
2021/10/31 10:42:05;;;;;;;3.10;1.95;;;;;;;;;;5094863;28;20069;-72
2021/10/31 10:44:34;;;;;;;4.78;2.40;;;;;;;;;;5092397;28;20083;-74
2021/10/31 10:47:02;;;;;;;5.20;2.58;;;;;;;;;;5092431;28;20811;-72
2021/10/31 10:49:33;;;;;;;5.38;2.10;;;;;;;;;;5087564;28;20056;-72
2021/10/31 10:52:26;;;;;;;4.65;2.30;;;;;;;;;;5085815;28;20055;-71
2021/10/31 10:54:59;;;;;;;3.13;1.58;;;;;;;;;;5091425;28;20056;-72
2021/10/31 10:57:27;;;;;;;2.85;1.77;;;;;;;;;;5094253;28;20052;-73
2021/10/31 10:59:56;;;;;;;3.50;2.03;;;;;;;;;;5084808;28;20048;-72
2021/10/31 11:02:24;;;;;;;5.18;1.98;;;;;;;;;;5086852;28;20486;-72
2021/10/31 11:04:56;;;;;;;3.50;1.60;;;;;;;;;;5095490;28;20048;-72
2021/10/31 11:07:39;;;;;;;2.72;1.20;;;;;;;;;;5092115;28;20418;-72
2021/10/31 11:10:17;;;;;;;4.22;1.63;;;;;;;;;;5090271;28;20055;-72
2021/10/31 11:12:44;;;;;;;2.25;1.45;;;;;;;;;;5087833;28;20079;-72
2021/10/31 11:15:13;;;;;;;2.83;1.55;;;;;;;;;;5090667;28;20066;-72
2021/10/31 11:17:41;;;;;;;2.60;1.38;;;;;;;;;;5084038;28;20056;-73
2021/10/31 11:20:11;;;;;;;2.90;1.23;;;;;;;;;;5091233;28;20059;-72
2021/10/31 11:22:37;;;;;;;5.38;1.90;;;;;;;;;;5096827;28;20546;-72
2021/10/31 11:25:05;;;;;;;2.50;1.27;;;;;;;;;;5088445;28;20494;-71
2021/10/31 11:27:33;;;;;;;2.90;1.35;;;;;;;;;;5095093;28;20075;-72
2021/10/31 11:30:00;;;;;;;2.58;1.10;;;;;;;;;;5088253;28;20048;-72
2021/10/31 11:32:29;;;;;;;2.35;1.30;;;;;;;;;;5093642;28;20935;-72
2021/10/31 11:34:57;;;;;;;3.92;1.80;;;;;;;;;;5087842;28;20052;-71
2021/10/31 11:37:26;;;;;;;3.30;1.60;;;;;;;;;;5089144;28;20051;-71
2021/10/31 11:39:56;;;;;;;3.30;1.70;;;;;;;;;;5090725;28;20047;-71
2021/10/31 11:42:24;;;;;;;2.35;1.50;;;;;;;;;;5089210;28;20044;-74
2021/10/31 11:45:05;;;;;;;2.95;1.27;;;;;;;;;;5095182;28;20059;-71
2021/10/31 11:47:32;;;;;;;3.10;1.75;;;;;;;;;;5090828;28;20047;-71
2021/10/31 11:50:09;;;;;;;4.07;2.25;;;;;;;;;;5095256;28;20580;-72
2021/10/31 11:52:58;;;;;;;3.50;1.70;;;;;;;;;;5082872;28;20040;-72
2021/10/31 11:58:46;;;;;;;2.33;1.30;;;;;;;;;;5087219;28;20153;-72
2021/10/31 12:01:18;;;;;;;3.85;1.45;;;;;;;;;;5095218;28;20052;-73
2021/10/31 12:03:50;;;;;;;2.88;1.52;;;;;;;;;;5092546;28;20051;-73
2021/10/31 12:06:43;;;;;;;2.60;1.50;;;;;;;;;;5088859;28;20047;-73
2021/10/31 12:09:25;;;;;;;2.70;1.52;;;;;;;;;;5090399;28;20044;-73
2021/10/31 12:12:12;;;;;;;3.88;2.13;;;;;;;;;;5084951;28;20040;-72
2021/10/31 12:14:57;;;;;;;3.70;1.50;;;;;;;;;;5088726;28;20040;-74
2021/10/31 12:17:26;;;;;;;5.53;2.80;;;;;;;;;;5084278;28;20052;-72
2021/10/31 12:19:55;;;;;;;4.47;2.25;;;;;;;;;;5091489;28;20434;-73
2021/10/31 12:22:23;;;;;;;2.90;1.77;;;;;;;;;;5090430;28;20044;-73
2021/10/31 12:24:52;;;;;;;3.88;1.80;;;;;;;;;;5089731;28;20048;-72
2021/10/31 12:27:20;;;;;;;3.70;2.13;;;;;;;;;;5088801;28;20036;-74
2021/10/31 12:29:55;;;;;;;4.95;2.17;;;;;;;;;;5091291;28;20198;-72
2021/10/31 12:32:23;;;;;;;2.72;1.88;;;;;;;;;;5089823;28;20135;-72
2021/10/31 12:34:52;;;;;;;3.60;1.73;;;;;;;;;;5095370;28;20060;-72
2021/10/31 12:37:24;;;;;;;2.65;1.35;;;;;;;;;;5087206;28;20051;-73
2021/10/31 12:39:53;;;;;;;3.05;1.50;;;;;;;;;;5092599;28;20059;-72
2021/10/31 12:42:22;;;;;;;4.38;1.98;;;;;;;;;;5089994;28;20135;-72
2021/10/31 12:44:55;;;;;;;2.45;1.30;;;;;;;;;;5090774;28;20048;-72
2021/10/31 12:47:25;;;;;;;3.58;1.80;;;;;;;;;;5089926;28;20051;-73
2021/10/31 12:50:06;;;;;;;2.90;1.65;;;;;;;;;;5090432;28;20043;-73
2021/10/31 12:52:33;;;;;;;1.85;1.38;;;;;;;;;;5083293;28;20054;-72
2021/10/31 12:55:01;;;;;;;3.70;1.58;;;;;;;;;;5091013;28;20040;-72
2021/10/31 12:57:28;;;;;;;2.55;1.08;;;;;;;;;;5089742;28;20054;-74
2021/10/31 13:00:01;;;;;;;4.20;1.50;;;;;;;;;;5090394;28;20051;-72
2021/10/31 13:02:28;;;;;;;2.20;1.20;;;;;;;;;;5086850;28;20072;-72
2021/10/31 13:04:58;;;;;;;2.53;1.48;;;;;;;;;;5088448;28;20055;-73
2021/10/31 13:07:39;;;;;;;2.80;1.70;;;;;;;;;;5090285;28;20075;-73
2021/10/31 13:10:08;;;;;;;3.05;1.52;;;;;;;;;;5091192;28;20074;-73
2021/10/31 13:12:34;;;;;;;10.90;2.85;;;;;;;;;;5089724;28;20481;-74
2021/10/31 13:15:12;;;;;;;2.75;1.60;;;;;;;;;;5096850;28;20040;-73
2021/10/31 13:17:41;;;;;;;4.03;1.50;;;;;;;;;;5093772;28;20048;-73
2021/10/31 13:20:24;;;;;;;3.75;2.03;;;;;;;;;;5091257;28;20055;-73
2021/10/31 13:22:59;;;;;;;3.58;2.03;;;;;;;;;;5090993;28;20405;-73
2021/10/31 13:25:28;;;;;;;3.47;1.42;;;;;;;;;;5093196;28;20044;-73
2021/10/31 13:27:59;;;;;;;3.33;1.58;;;;;;;;;;5090637;28;20450;-73
2021/10/31 13:30:26;;;;;;;3.33;1.77;;;;;;;;;;5093438;28;20059;-75
2021/10/31 13:32:53;;;;;;;3.25;1.92;;;;;;;;;;5093727;28;20055;-74
2021/10/31 13:35:21;;;;;;;4.20;1.65;;;;;;;;;;5093556;28;20052;-73
2021/10/31 13:37:59;;;;;;;5.05;2.00;;;;;;;;;;5093195;28;20056;-75
2021/10/31 13:40:26;;;;;;;2.65;1.58;;;;;;;;;;5090536;28;20048;-74
2021/10/31 13:42:53;;;;;;;3.13;1.75;;;;;;;;;;5092651;28;20040;-75
2021/10/31 13:45:20;;;;;;;2.90;1.67;;;;;;;;;;5091401;28;20048;-73
2021/10/31 13:47:52;;;;;;;4.28;2.10;;;;;;;;;;5095841;28;20098;-72
2021/10/31 13:50:22;;;;;;;3.05;1.23;;;;;;;;;;5095653;28;20044;-75
2021/10/31 13:52:54;;;;;;;3.60;1.92;;;;;;;;;;5093307;28;20044;-73
2021/10/31 13:55:22;;;;;;;3.50;1.52;;;;;;;;;;5092733;28;20055;-73
2021/10/31 13:57:49;;;;;;;2.95;1.50;;;;;;;;;;5090182;28;20044;-73
2021/10/31 14:00:26;;;;;;;2.60;1.48;;;;;;;;;;5090487;28;20083;-73
2021/10/31 14:02:54;;;;;;;16.63;2.88;;;;;;;;;;5091596;28;20493;-74
2021/10/31 14:05:28;;;;;;;5.03;1.98;;;;;;;;;;5093097;28;20434;-73
2021/10/31 14:08:00;;;;;;;2.90;1.65;;;;;;;;;;5105930;28;20066;-72
2021/10/31 14:10:34;;;;;;;3.17;1.70;;;;;;;;;;5102946;28;20054;-73
2021/10/31 14:13:06;;;;;;;3.67;1.85;;;;;;;;;;5099914;28;20054;-74
2021/10/31 14:15:33;;;;;;;3.28;1.80;;;;;;;;;;5091903;28;20055;-73
2021/10/31 14:18:01;;;;;;;3.38;1.88;;;;;;;;;;5090410;28;20422;-73
2021/10/31 14:20:34;;;;;;;5.25;1.85;;;;;;;;;;5093642;28;20052;-73
2021/10/31 14:23:00;;;;;;;7.20;2.53;;;;;;;;;;5107030;28;20565;-73
2021/10/31 14:25:28;;;;;;;4.15;1.90;;;;;;;;;;5093499;28;20044;-74
2021/10/31 14:28:10;;;;;;;4.97;2.42;;;;;;;;;;5096921;28;20055;-73
2021/10/31 14:30:37;;;;;;;3.63;2.05;;;;;;;;;;5093770;28;20196;-74
2021/10/31 14:33:05;;;;;;;4.13;2.40;;;;;;;;;;5097048;28;20059;-76
2021/10/31 14:35:42;;;;;;;3.78;2.35;;;;;;;;;;5093102;28;20126;-74
2021/10/31 14:38:25;;;;;;;9.07;5.93;;;;;;;;;;5094491;28;20058;-74
2021/10/31 14:41:13;;;;;;;15.60;11.23;;;;;;;;;;5076966;28;20051;-75
2021/10/31 14:43:40;;;;;;;8.98;5.72;;;;;;;;;;5097580;28;20557;-73
2021/10/31 14:46:13;;;;;;;7.75;5.47;;;;;;;;;;5091611;28;20391;-74
2021/10/31 14:48:42;;;;;;;6.63;4.40;;;;;;;;;;5097348;28;20048;-74
2021/10/31 14:51:22;;;;;;;5.35;3.35;;;;;;;;;;5092547;28;20537;-73
2021/10/31 14:54:01;;;;;;;7.07;4.78;;;;;;;;;;5090608;28;20131;-73
2021/10/31 14:56:31;;;;;;;8.05;5.25;;;;;;;;;;5092114;28;20508;-73
2021/10/31 14:59:01;;;;;;;5.90;3.35;;;;;;;;;;5089561;28;20044;-74